Time;durP1;ratioP1;P1;durP2;ratioP2;P2;SDS_P1;SDS_P2;PMS_P1;PMS_P2;Temp;Humidity;BMP_temperature;BMP_pressure;BME280_temperature;BME280_humidity;BME280_pressure;Samples;Min_cycle;Max_cycle;Signal;HPM_P1;HPM_P2
2023/01/18 00:00:43;;;;;;;14.70;9.93;;;;;;;-2.28;86.44;98507.72;7400322;19;20040;-70
2023/01/18 00:03:15;;;;;;;15.63;10.48;;;;;;;-2.29;86.35;98513.72;7399998;19;20023;-70
2023/01/18 00:05:44;;;;;;;13.32;10.15;;;;;;;-2.31;86.00;98516.28;7398065;19;20022;-70
2023/01/18 00:08:15;;;;;;;13.25;9.85;;;;;;;-2.31;86.33;98513.72;7397692;19;20027;-70
2023/01/18 00:10:44;;;;;;;14.15;9.13;;;;;;;-2.27;86.21;98511.13;7400022;19;20014;-70
2023/01/18 00:13:13;;;;;;;11.98;9.23;;;;;;;-2.26;86.29;98518.84;7399217;19;20503;-70
2023/01/18 00:15:42;;;;;;;12.05;9.05;;;;;;;-2.25;85.87;98510.28;7397565;19;20027;-70
2023/01/18 00:18:10;;;;;;;20.27;11.52;;;;;;;-2.24;86.16;98509.41;7400166;19;20035;-70
2023/01/18 00:20:48;;;;;;;11.60;9.65;;;;;;;-2.24;85.96;98506.84;7397660;19;20019;-70
2023/01/18 00:23:16;;;;;;;12.63;9.73;;;;;;;-2.22;86.13;98504.28;7399547;19;20082;-70
2023/01/18 00:25:51;;;;;;;12.35;9.13;;;;;;;-2.23;85.92;98498.25;7399936;19;20038;-71
2023/01/18 00:28:23;;;;;;;12.13;8.82;;;;;;;-2.22;86.11;98505.13;7398291;19;20022;-70
2023/01/18 00:30:52;;;;;;;12.63;9.25;;;;;;;-2.23;85.97;98502.56;7397974;19;20077;-70
2023/01/18 00:33:20;;;;;;;15.05;9.43;;;;;;;-2.22;86.25;98499.97;7398637;19;20038;-70
2023/01/18 00:35:59;;;;;;;15.85;8.70;;;;;;;-2.22;86.04;98505.13;7399653;19;20509;-70
2023/01/18 00:38:28;;;;;;;11.60;8.05;;;;;;;-2.21;86.23;98504.25;7399911;19;20035;-69
2023/01/18 00:40:57;;;;;;;11.10;7.55;;;;;;;-2.22;86.32;98510.25;7399333;19;20039;-70
2023/01/18 00:43:38;;;;;;;12.07;8.38;;;;;;;-2.22;86.10;98514.56;7398101;19;20481;-70
2023/01/18 00:46:06;;;;;;;11.35;7.82;;;;;;;-2.23;86.23;98513.69;7399606;19;20034;-70
2023/01/18 00:48:35;;;;;;;12.57;8.45;;;;;;;-2.28;86.30;98518.00;7397072;19;20018;-70
2023/01/18 00:51:07;;;;;;;11.93;8.23;;;;;;;-2.23;86.36;98529.09;7399084;19;20014;-69
2023/01/18 00:53:36;;;;;;;11.32;8.20;;;;;;;-2.23;86.12;98531.66;7398329;19;20022;-70
2023/01/18 00:56:05;;;;;;;9.45;7.10;;;;;;;-2.21;86.28;98541.91;7398430;19;20015;-70
2023/01/18 00:58:36;;;;;;;11.43;9.07;;;;;;;-2.23;86.38;98541.94;7398507;19;20027;-71
2023/01/18 01:01:05;;;;;;;15.35;9.00;;;;;;;-2.20;86.49;98552.22;7396439;19;20014;-69
2023/01/18 01:06:43;;;;;;;10.27;7.68;;;;;;;-2.17;86.33;98556.47;7397322;19;20470;-68
2023/01/18 01:09:09;;;;;;;11.38;7.97;;;;;;;-2.16;86.60;98566.75;7398562;19;20010;-69
2023/01/18 01:11:37;;;;;;;13.02;8.63;;;;;;;-2.14;86.51;98565.03;7397934;19;20390;-69
2023/01/18 01:27:33;;;;;;;8.05;6.05;;;;;;;-2.08;86.85;98582.13;7398006;19;20073;-69
2023/01/18 01:30:02;;;;;;;9.88;6.65;;;;;;;-2.05;86.60;98589.78;7396870;19;20031;-70
2023/01/18 01:32:31;;;;;;;7.93;6.78;;;;;;;-2.02;86.88;98599.19;7398183;19;20031;-69
2023/01/18 01:34:59;;;;;;;7.53;6.22;;;;;;;-2.00;86.91;98597.50;7395595;19;20035;-70
2023/01/18 01:37:30;;;;;;;8.68;6.20;;;;;;;-1.98;86.95;98609.47;7395543;19;20022;-69
2023/01/18 01:39:59;;;;;;;7.55;5.85;;;;;;;-1.96;86.84;98609.44;7397957;19;20019;-69
2023/01/18 01:42:27;;;;;;;8.82;5.85;;;;;;;-1.92;86.85;98598.31;7397009;19;20043;-69
2023/01/18 01:44:56;;;;;;;6.95;5.13;;;;;;;-1.89;86.86;98598.28;7395493;19;20124;-69
2023/01/18 01:47:34;;;;;;;8.35;5.57;;;;;;;-1.87;87.01;98601.72;7394942;19;20014;-68
2023/01/18 01:50:09;;;;;;;6.93;5.05;;;;;;;-1.84;87.15;98603.41;7396837;19;20481;-69
2023/01/18 01:52:44;;;;;;;7.20;5.57;;;;;;;-1.82;87.10;98592.25;7396527;19;20364;-69
2023/01/18 01:55:17;;;;;;;8.20;5.40;;;;;;;-1.78;87.58;98602.50;7396640;19;20352;-69
2023/01/18 01:57:51;;;;;;;8.13;6.53;;;;;;;-1.77;87.58;98589.63;7396019;19;20427;-69
2023/01/18 02:00:23;;;;;;;10.93;6.55;;;;;;;-1.77;87.70;98587.06;7397267;19;20031;-69
2023/01/18 02:02:55;;;;;;;8.90;6.80;;;;;;;-1.76;87.43;98595.66;7396033;19;20364;-69
2023/01/18 02:05:24;;;;;;;8.75;6.13;;;;;;;-1.76;87.33;98585.34;7397627;19;20039;-70
2023/01/18 02:07:58;;;;;;;11.02;7.00;;;;;;;-1.76;87.29;98586.19;7396029;19;20024;-69
2023/01/18 02:10:27;;;;;;;8.57;7.00;;;;;;;-1.76;87.58;98590.50;7396374;19;20007;-71
2023/01/18 02:12:57;;;;;;;9.85;6.80;;;;;;;-1.76;87.41;98596.50;7395655;19;20014;-68
2023/01/18 02:15:31;;;;;;;9.18;6.53;;;;;;;-1.75;87.20;98595.63;7396012;19;20506;-68
2023/01/18 02:18:20;;;;;;;9.32;6.85;;;;;;;-1.75;87.23;98592.22;7395763;19;20011;-68
2023/01/18 02:21:14;;;;;;;8.07;5.55;;;;;;;-1.73;87.31;98601.63;7394953;19;20023;-68
2023/01/18 02:24:14;;;;;;;8.32;5.75;;;;;;;-1.72;87.44;98603.34;7395300;19;20018;-68
2023/01/18 02:27:00;;;;;;;7.80;5.72;;;;;;;-1.70;87.39;98616.19;7396337;19;20418;-68
2023/01/18 02:29:57;;;;;;;6.95;5.63;;;;;;;-1.69;87.47;98615.31;7395179;19;20031;-68
2023/01/18 02:32:36;;;;;;;7.68;6.07;;;;;;;-1.66;87.22;98605.00;7395013;19;20018;-68
2023/01/18 02:35:11;;;;;;;9.75;6.60;;;;;;;-1.64;87.31;98608.44;7395871;19;20033;-69
2023/01/18 02:38:08;;;;;;;8.63;6.32;;;;;;;-1.66;87.18;98610.97;7394935;19;20482;-68
2023/01/18 02:40:47;;;;;;;8.32;6.97;;;;;;;-1.67;87.31;98609.31;7396021;19;20022;-68
2023/01/18 02:48:45;;;;;;;9.88;7.07;;;;;;;-1.70;87.10;98603.31;7395543;19;20022;-67
2023/01/18 02:51:14;;;;;;;11.93;6.90;;;;;;;-1.70;87.13;98603.31;7395796;19;20052;-71
2023/01/18 02:53:45;;;;;;;8.45;6.70;;;;;;;-1.70;87.48;98595.59;7393356;19;20015;-71
2023/01/18 02:56:17;;;;;;;10.40;7.65;;;;;;;-1.71;87.52;98604.19;7395615;19;20015;-68
2023/01/18 02:58:49;;;;;;;10.52;7.35;;;;;;;-1.74;87.59;98597.34;7393794;19;20439;-67
2023/01/18 03:01:25;;;;;;;9.95;7.20;;;;;;;-1.77;87.33;98599.91;7394637;19;20011;-67
2023/01/18 03:03:58;;;;;;;9.65;7.30;;;;;;;-1.79;87.58;98599.09;7393376;19;20015;-68
2023/01/18 03:06:30;;;;;;;8.90;7.20;;;;;;;-1.80;87.49;98599.94;7394599;19;20490;-68
2023/01/18 03:09:01;;;;;;;9.77;7.63;;;;;;;-1.80;87.19;98597.38;7395137;19;20432;-67
2023/01/18 03:11:37;;;;;;;11.13;8.05;;;;;;;-1.81;87.31;98596.53;7395217;19;20026;-68
2023/01/18 03:14:15;;;;;;;12.60;8.55;;;;;;;-1.81;87.28;98599.09;7393023;19;20039;-68
2023/01/18 03:16:59;;;;;;;12.85;9.27;;;;;;;-1.81;87.32;98608.50;7392742;19;20031;-67
2023/01/18 03:23:36;;;;;;;14.90;10.00;;;;;;;-1.78;87.49;98610.22;7403652;19;20494;-68
2023/01/18 03:25:10;;;;;;;11.00;9.15;;;;;;;-1.77;87.85;98601.66;7402585;19;20014;-67
2023/01/18 03:35:57;;;;;;;11.95;8.85;;;;;;;-1.74;87.57;98611.94;7401520;19;20022;-67
2023/01/18 03:38:26;;;;;;;13.10;8.68;;;;;;;-1.73;87.69;98616.19;7399255;19;20023;-67
2023/01/18 03:40:54;;;;;;;14.68;9.50;;;;;;;-1.73;87.54;98619.63;7400864;19;20454;-67
2023/01/18 03:43:27;;;;;;;11.93;9.68;;;;;;;-1.72;87.78;98618.75;7400406;19;20018;-67
2023/01/18 03:45:57;;;;;;;10.95;8.90;;;;;;;-1.73;87.72;98623.88;7398178;19;20070;-67
2023/01/18 03:48:28;;;;;;;11.32;9.07;;;;;;;-1.73;87.78;98629.03;7400751;19;20494;-67
2023/01/18 03:51:04;;;;;;;13.63;8.68;;;;;;;-1.75;87.85;98623.06;7399782;19;20022;-67
2023/01/18 03:53:38;;;;;;;12.80;8.80;;;;;;;-1.75;88.17;98623.06;7399495;19;20078;-67
2023/01/18 03:56:12;;;;;;;10.85;8.75;;;;;;;-1.76;87.93;98621.34;7401431;19;20014;-67
2023/01/18 03:58:41;;;;;;;13.88;8.43;;;;;;;-1.75;88.13;98618.75;7398997;19;20022;-67
2023/01/18 04:01:09;;;;;;;13.45;8.88;;;;;;;-1.73;87.86;98623.88;7398104;19;20026;-67
2023/01/18 04:03:40;;;;;;;11.65;8.30;;;;;;;-1.71;88.26;98622.19;7397844;19;20023;-67
2023/01/18 04:06:09;;;;;;;13.35;8.73;;;;;;;-1.68;87.97;98619.56;7400947;19;20026;-68
2023/01/18 04:08:38;;;;;;;13.50;8.20;;;;;;;-1.69;88.57;98615.31;7397822;19;20022;-68
2023/01/18 04:11:06;;;;;;;11.80;8.27;;;;;;;-1.71;88.47;98612.72;7400209;19;20023;-68
2023/01/18 04:13:35;;;;;;;15.10;8.45;;;;;;;-1.69;88.29;98617.88;7398983;19;20018;-68
2023/01/18 04:16:03;;;;;;;12.13;8.68;;;;;;;-1.67;88.74;98608.44;7399669;19;20018;-68
2023/01/18 04:18:32;;;;;;;13.18;9.10;;;;;;;-1.67;88.96;98611.88;7398876;19;20031;-68
2023/01/18 04:21:03;;;;;;;11.93;8.82;;;;;;;-1.66;89.11;98617.84;7397801;19;20022;-68
2023/01/18 04:23:31;;;;;;;11.00;8.13;;;;;;;-1.66;89.53;98602.44;7398988;19;20026;-68
2023/01/18 04:26:00;;;;;;;10.98;8.25;;;;;;;-1.66;89.82;98610.13;7399999;19;20022;-68
2023/01/18 04:28:28;;;;;;;12.90;8.60;;;;;;;-1.66;89.99;98607.56;7397319;19;20026;-68
2023/01/18 04:31:04;;;;;;;12.55;8.27;;;;;;;-1.64;89.54;98611.00;7397294;19;20027;-68
2023/01/18 04:33:33;;;;;;;13.20;8.05;;;;;;;-1.65;90.36;98606.72;7397661;19;20026;-67
2023/01/18 04:36:04;;;;;;;11.00;7.63;;;;;;;-1.65;90.18;98610.13;7397295;19;20022;-67
2023/01/18 04:38:32;;;;;;;12.35;7.85;;;;;;;-1.64;90.22;98611.00;7396748;19;20022;-68
2023/01/18 04:41:04;;;;;;;11.38;7.70;;;;;;;-1.63;90.07;98612.72;7399382;19;20014;-69
2023/01/18 04:43:33;;;;;;;11.02;8.32;;;;;;;-1.62;89.95;98610.97;7398683;19;20072;-67
2023/01/18 04:46:01;;;;;;;9.82;7.93;;;;;;;-1.62;89.55;98608.41;7399172;19;20018;-67
2023/01/18 04:48:30;;;;;;;11.38;8.35;;;;;;;-1.60;89.67;98607.53;7396479;19;20027;-67
2023/01/18 04:50:58;;;;;;;9.77;7.78;;;;;;;-1.58;90.03;98605.81;7396688;19;20023;-67
2023/01/18 04:53:30;;;;;;;11.98;7.95;;;;;;;-1.57;89.34;98612.63;7398225;19;20035;-67
2023/01/18 04:55:58;;;;;;;11.57;8.05;;;;;;;-1.54;89.69;98615.22;7398302;19;20082;-67
2023/01/18 04:58:26;;;;;;;9.48;7.43;;;;;;;-1.52;89.36;98623.75;7397910;19;20044;-67
2023/01/18 05:00:55;;;;;;;12.32;7.45;;;;;;;-1.50;89.40;98624.59;7398370;19;20509;-67
2023/01/18 05:03:23;;;;;;;11.93;7.90;;;;;;;-1.47;89.60;98623.72;7397311;19;20481;-68
2023/01/18 05:05:52;;;;;;;10.27;7.18;;;;;;;-1.45;89.56;98624.59;7398398;19;20026;-67
2023/01/18 05:08:20;;;;;;;10.45;7.63;;;;;;;-1.43;89.73;98619.41;7398449;19;20027;-67
2023/01/18 05:10:52;;;;;;;10.68;7.82;;;;;;;-1.42;89.96;98616.00;7400213;19;20411;-68
2023/01/18 05:13:20;;;;;;;10.00;7.82;;;;;;;-1.42;90.28;98616.00;7397927;19;20014;-68
2023/01/18 05:15:49;;;;;;;11.63;7.90;;;;;;;-1.40;90.00;98624.53;7398111;19;20389;-68
2023/01/18 05:18:18;;;;;;;10.98;7.97;;;;;;;-1.40;90.29;98615.09;7397636;19;20407;-70
2023/01/18 05:20:46;;;;;;;13.18;7.93;;;;;;;-1.38;89.94;98622.81;7397693;19;20018;-69
2023/01/18 05:23:15;;;;;;;11.88;8.40;;;;;;;-1.37;90.32;98620.22;7396611;19;20018;-69
2023/01/18 05:25:43;;;;;;;11.98;7.50;;;;;;;-1.35;89.91;98623.66;7397600;19;20032;-69
2023/01/18 05:28:14;;;;;;;13.13;8.55;;;;;;;-1.33;90.25;98626.19;7397279;19;20023;-69
2023/01/18 05:30:44;;;;;;;13.80;9.65;;;;;;;-1.31;90.28;98627.91;7396254;19;20067;-69
2023/01/18 05:33:12;;;;;;;14.00;9.70;;;;;;;-1.29;90.42;98635.59;7395637;19;20035;-69
2023/01/18 05:35:41;;;;;;;13.43;9.45;;;;;;;-1.28;90.20;98637.31;7396566;19;20506;-69
2023/01/18 05:38:09;;;;;;;11.85;9.18;;;;;;;-1.26;90.07;98639.84;7395016;19;20022;-69
2023/01/18 05:40:38;;;;;;;12.20;8.52;;;;;;;-1.26;90.33;98645.88;7396302;19;20027;-69
2023/01/18 05:43:06;;;;;;;15.40;8.05;;;;;;;-1.24;90.40;98654.44;7394304;19;20023;-69
2023/01/18 05:45:37;;;;;;;10.60;7.72;;;;;;;-1.21;90.22;98659.56;7396353;19;20018;-70
2023/01/18 05:48:06;;;;;;;11.30;7.78;;;;;;;-1.19;90.12;98664.69;7397104;19;20039;-69
2023/01/18 05:50:35;;;;;;;15.35;8.65;;;;;;;-1.17;89.86;98662.97;7396354;19;20529;-69
2023/01/18 05:53:03;;;;;;;12.23;8.80;;;;;;;-1.13;89.73;98663.81;7395568;19;20035;-70
2023/01/18 05:55:32;;;;;;;10.55;8.15;;;;;;;-1.12;90.32;98670.66;7396471;19;20018;-69
2023/01/18 05:58:00;;;;;;;10.55;8.18;;;;;;;-1.11;90.25;98667.19;7393889;19;20384;-69
2023/01/18 06:00:29;;;;;;;19.40;10.90;;;;;;;-1.09;90.10;98665.47;7395893;19;20085;-69
2023/01/18 06:03:00;;;;;;;34.28;16.73;;;;;;;-1.08;89.97;98669.75;7395585;19;20034;-69
2023/01/18 06:05:30;;;;;;;15.38;10.10;;;;;;;-1.06;90.23;98671.47;7395356;19;20015;-69
2023/01/18 06:07:58;;;;;;;12.70;9.05;;;;;;;-1.05;90.11;98674.88;7394392;19;20018;-69
2023/01/18 06:10:27;;;;;;;19.02;11.57;;;;;;;-1.05;90.61;98678.31;7395393;19;20366;-68
2023/01/18 06:12:56;;;;;;;15.85;9.98;;;;;;;-1.04;90.53;98679.16;7393864;19;20026;-68
2023/01/18 06:15:24;;;;;;;12.60;9.25;;;;;;;-1.03;90.25;98681.72;7394350;19;20022;-69
2023/01/18 06:17:52;;;;;;;16.45;8.55;;;;;;;-1.02;90.03;98690.31;7394283;19;20026;-68
2023/01/18 06:20:24;;;;;;;14.25;9.35;;;;;;;-1.02;90.47;98691.16;7393071;19;20415;-69
2023/01/18 06:22:52;;;;;;;17.85;8.77;;;;;;;-1.02;89.99;98692.88;7393857;19;20014;-68
2023/01/18 06:25:21;;;;;;;9.20;7.47;;;;;;;-1.01;89.95;98694.56;7394529;19;20027;-69
2023/01/18 06:27:49;;;;;;;12.10;7.97;;;;;;;-1.00;90.03;98693.72;7395221;19;20011;-68
2023/01/18 06:30:19;;;;;;;13.82;8.73;;;;;;;-0.99;89.93;98698.00;7395480;19;20098;-68
2023/01/18 06:32:49;;;;;;;11.68;9.45;;;;;;;-0.98;90.00;98692.84;7393978;19;20007;-68
2023/01/18 06:35:19;;;;;;;13.00;7.93;;;;;;;-0.96;89.96;98703.13;7395644;19;20018;-68
2023/01/18 06:37:51;;;;;;;12.05;8.15;;;;;;;-0.95;90.00;98699.66;7393958;19;20025;-67
2023/01/18 06:40:19;;;;;;;17.60;8.85;;;;;;;-0.93;90.01;98700.53;7394033;19;20042;-69
2023/01/18 06:42:50;;;;;;;12.82;8.35;;;;;;;-0.91;89.91;98700.50;7394882;19;20018;-69
2023/01/18 06:45:20;;;;;;;11.88;7.72;;;;;;;-0.91;89.78;98706.53;7395048;19;20035;-69
2023/01/18 06:47:49;;;;;;;13.55;7.72;;;;;;;-0.90;89.76;98707.38;7395378;19;20010;-69
2023/01/18 06:50:19;;;;;;;13.20;8.63;;;;;;;-0.89;89.96;98712.50;7394392;19;20019;-69
2023/01/18 06:52:50;;;;;;;13.10;9.23;;;;;;;-0.87;89.84;98707.38;7391797;19;20436;-69
2023/01/18 06:55:20;;;;;;;13.68;8.80;;;;;;;-0.86;89.84;98714.19;7395407;19;20042;-69
2023/01/18 06:57:48;;;;;;;11.00;8.02;;;;;;;-0.85;89.82;98713.34;7394379;19;20015;-68
2023/01/18 07:00:18;;;;;;;10.05;7.40;;;;;;;-0.87;89.73;98713.34;7392797;19;20031;-69
2023/01/18 07:02:46;;;;;;;11.73;7.43;;;;;;;-0.85;89.84;98716.78;7394546;19;20027;-70
2023/01/18 07:05:15;;;;;;;12.50;8.07;;;;;;;-0.84;89.76;98722.78;7393507;19;20019;-70
2023/01/18 07:07:44;;;;;;;10.95;7.93;;;;;;;-0.84;89.79;98725.34;7392905;19;20036;-69
2023/01/18 07:10:16;;;;;;;13.73;8.50;;;;;;;-0.85;89.53;98732.22;7392620;19;20376;-69
2023/01/18 07:12:47;;;;;;;15.80;8.38;;;;;;;-0.83;89.60;98734.78;7393887;19;20031;-69
2023/01/18 07:15:16;;;;;;;11.57;7.63;;;;;;;-0.84;89.59;98733.06;7395885;19;20014;-69
2023/01/18 07:17:44;;;;;;;11.95;8.23;;;;;;;-0.84;89.66;98735.66;7394332;19;20039;-69
2023/01/18 07:20:15;;;;;;;17.83;11.05;;;;;;;-0.85;89.62;98737.38;7392885;19;20040;-69
2023/01/18 07:22:44;;;;;;;12.65;8.43;;;;;;;-0.84;89.84;98740.78;7394300;19;20039;-69
2023/01/18 07:25:17;;;;;;;13.68;9.23;;;;;;;-0.84;89.69;98744.22;7393873;19;20026;-68
2023/01/18 07:27:47;;;;;;;15.13;7.93;;;;;;;-0.84;89.73;98743.38;7394021;19;20061;-69
2023/01/18 07:30:17;;;;;;;12.05;8.20;;;;;;;-0.79;89.52;98745.91;7394022;19;20027;-68
2023/01/18 07:32:50;;;;;;;14.32;8.60;;;;;;;-0.83;89.42;98745.09;7392249;19;20018;-68
2023/01/18 07:35:20;;;;;;;12.48;8.55;;;;;;;-0.78;89.33;98758.78;7391309;19;20492;-69
2023/01/18 07:37:51;;;;;;;12.10;7.97;;;;;;;-0.77;89.50;98760.50;7393282;19;20419;-70
2023/01/18 07:40:22;;;;;;;12.13;8.20;;;;;;;-0.74;89.76;98773.31;7392014;19;20034;-68
2023/01/18 07:42:51;;;;;;;10.82;7.20;;;;;;;-0.71;89.43;98770.75;7391430;19;20079;-69
2023/01/18 07:45:20;;;;;;;9.80;7.47;;;;;;;-0.68;89.59;98770.72;7391266;19;20067;-69
2023/01/18 07:47:48;;;;;;;13.25;8.43;;;;;;;-0.66;89.36;98776.72;7393299;19;20029;-68
2023/01/18 07:50:17;;;;;;;11.27;9.00;;;;;;;-0.64;89.25;98775.81;7393291;19;20038;-68
2023/01/18 07:52:46;;;;;;;14.07;8.57;;;;;;;-0.60;89.30;98782.69;7393304;19;20090;-68
2023/01/18 07:55:15;;;;;;;11.75;9.43;;;;;;;-0.59;89.29;98780.09;7390654;19;20022;-68
2023/01/18 07:57:46;;;;;;;16.40;9.90;;;;;;;-0.56;89.13;98787.78;7390155;19;20014;-69
2023/01/18 08:00:16;;;;;;;11.73;8.65;;;;;;;-0.54;89.27;98785.22;7389950;19;20074;-68
2023/01/18 08:02:44;;;;;;;14.60;9.15;;;;;;;-0.53;89.25;98781.75;7392138;19;20025;-68
2023/01/18 08:05:13;;;;;;;15.80;10.10;;;;;;;-0.52;89.04;98781.75;7394897;19;20014;-68
2023/01/18 08:07:41;;;;;;;18.27;11.00;;;;;;;-0.50;89.11;98785.16;7397806;19;20022;-68
2023/01/18 08:10:13;;;;;;;15.15;9.18;;;;;;;-0.48;89.19;98785.16;7400446;19;20022;-68
2023/01/18 08:12:42;;;;;;;15.90;8.93;;;;;;;-0.48;89.16;98781.72;7399758;19;20011;-68
2023/01/18 08:15:14;;;;;;;11.68;8.38;;;;;;;-0.46;89.21;98785.16;7398833;19;20502;-68
2023/01/18 08:17:42;;;;;;;14.63;8.77;;;;;;;-0.44;89.01;98779.09;7396661;19;20489;-68
2023/01/18 08:20:12;;;;;;;12.18;8.95;;;;;;;-0.41;89.19;98785.97;7398160;19;20020;-68
2023/01/18 08:22:41;;;;;;;10.00;7.28;;;;;;;-0.38;89.06;98785.91;7399546;19;20022;-70
2023/01/18 08:25:10;;;;;;;15.85;9.00;;;;;;;-0.35;89.02;98785.91;7399111;19;20014;-68
2023/01/18 08:27:39;;;;;;;11.88;8.13;;;;;;;-0.32;88.99;98788.44;7399005;19;20544;-68
2023/01/18 08:30:09;;;;;;;11.38;7.90;;;;;;;-0.30;88.95;98789.28;7399361;19;20015;-68
2023/01/18 08:32:40;;;;;;;16.17;8.80;;;;;;;-0.27;89.06;98794.41;7396933;19;20035;-67
2023/01/18 08:35:10;;;;;;;10.77;8.68;;;;;;;-0.24;89.06;98799.56;7398170;19;20018;-68
2023/01/18 08:37:39;;;;;;;13.13;8.63;;;;;;;-0.23;88.75;98792.66;7398926;19;20482;-69
2023/01/18 08:40:09;;;;;;;13.05;9.25;;;;;;;-0.23;88.89;98796.13;7398123;19;20482;-69
2023/01/18 08:42:37;;;;;;;13.27;8.63;;;;;;;-0.21;88.77;98796.09;7398654;19;20014;-69
2023/01/18 08:45:06;;;;;;;13.82;9.25;;;;;;;-0.22;88.46;98797.78;7398669;19;20031;-69
2023/01/18 08:47:35;;;;;;;12.43;8.18;;;;;;;-0.20;88.31;98808.97;7398498;19;20018;-69
2023/01/18 08:50:07;;;;;;;13.55;8.18;;;;;;;-0.20;88.29;98808.13;7398513;19;20419;-69
2023/01/18 08:52:36;;;;;;;11.65;7.97;;;;;;;-0.20;88.43;98802.97;7398202;19;20010;-68
2023/01/18 08:55:06;;;;;;;10.90;8.07;;;;;;;-0.21;88.44;98799.50;7396018;19;20037;-70
2023/01/18 08:57:35;;;;;;;15.32;9.05;;;;;;;-0.19;88.43;98810.66;7397938;19;20482;-68
2023/01/18 09:00:03;;;;;;;10.50;7.72;;;;;;;-0.20;88.19;98808.97;7396062;19;20018;-69
2023/01/18 09:02:32;;;;;;;11.48;8.60;;;;;;;-0.19;88.29;98810.66;7398577;19;20023;-69
2023/01/18 09:05:10;;;;;;;12.30;7.95;;;;;;;-0.20;88.08;98810.69;7395308;19;20022;-69
2023/01/18 09:07:39;;;;;;;11.48;7.78;;;;;;;-0.20;88.07;98803.81;7397584;19;20078;-69
2023/01/18 09:10:09;;;;;;;11.52;7.78;;;;;;;-0.20;88.23;98805.53;7397646;19;20368;-69
2023/01/18 09:12:38;;;;;;;14.25;8.15;;;;;;;-0.17;88.31;98814.06;7396915;19;20015;-69
2023/01/18 09:15:07;;;;;;;12.50;8.30;;;;;;;-0.15;88.00;98821.81;7397482;19;20018;-69
2023/01/18 09:17:36;;;;;;;11.30;8.07;;;;;;;-0.14;87.98;98812.34;7394894;19;20035;-68
2023/01/18 09:20:08;;;;;;;13.23;8.00;;;;;;;-0.11;87.95;98817.50;7396478;19;20010;-69
2023/01/18 09:22:41;;;;;;;9.57;6.97;;;;;;;-0.08;87.98;98817.44;7395606;19;20018;-69
2023/01/18 09:25:11;;;;;;;15.80;7.38;;;;;;;-0.04;87.93;98819.13;7396431;19;20015;-68
2023/01/18 09:27:39;;;;;;;10.25;6.88;;;;;;;0.00;87.79;98828.56;7397201;19;20014;-69
2023/01/18 09:30:09;;;;;;;10.02;6.90;;;;;;;0.04;87.93;98830.22;7397555;19;20411;-69
2023/01/18 09:32:38;;;;;;;9.40;6.82;;;;;;;0.07;87.55;98830.19;7397792;19;20034;-70
2023/01/18 09:35:07;;;;;;;12.23;7.03;;;;;;;0.10;87.25;98830.16;7394476;19;20018;-69
2023/01/18 09:37:39;;;;;;;14.23;8.13;;;;;;;0.13;87.55;98830.13;7397532;19;20228;-69
2023/01/18 09:40:09;;;;;;;16.55;8.80;;;;;;;0.17;87.29;98819.78;7395136;19;20078;-69
2023/01/18 09:42:43;;;;;;;13.27;8.60;;;;;;;0.21;87.51;98824.88;7395064;19;20023;-69
2023/01/18 09:45:17;;;;;;;;;;;;;;;0.27;87.47;98827.41;7396643;19;20015;-69
2023/01/18 09:47:48;;;;;;;10.10;7.40;;;;;;;0.32;87.34;98830.78;7397048;19;20339;-69
2023/01/18 09:50:19;;;;;;;12.00;7.55;;;;;;;0.37;87.38;98835.03;7396639;19;20481;-70
2023/01/18 09:52:57;;;;;;;10.05;7.18;;;;;;;0.41;86.97;98834.16;7394537;19;20006;-69
2023/01/18 09:55:34;;;;;;;12.38;6.93;;;;;;;0.44;87.05;98828.94;7396983;19;20015;-72
2023/01/18 09:58:18;;;;;;;11.93;8.25;;;;;;;0.50;86.88;98840.94;7396424;19;20017;-68
2023/01/18 10:00:49;;;;;;;11.07;7.47;;;;;;;0.55;86.62;98846.91;7396065;19;20014;-69
2023/01/18 10:03:22;;;;;;;16.48;9.10;;;;;;;0.57;86.35;98837.38;7394756;19;20023;-69
2023/01/18 10:06:07;;;;;;;14.85;8.25;;;;;;;0.61;86.32;98844.25;7396625;19;20426;-70
2023/01/18 10:08:40;;;;;;;;;;;;;;;0.63;85.92;98835.59;7396027;19;20024;-69
2023/01/18 10:11:12;;;;;;;13.98;9.77;;;;;;;0.64;85.96;98842.50;7396708;19;19922;-70
2023/01/18 10:13:51;;;;;;;21.50;12.05;;;;;;;0.67;85.92;98840.72;7395544;19;20026;-70
2023/01/18 10:16:19;;;;;;;23.65;12.38;;;;;;;0.69;85.71;98844.16;7396054;19;20023;-70
2023/01/18 10:18:54;;;;;;;19.48;10.02;;;;;;;0.72;85.72;98844.09;7395997;19;20039;-69
2023/01/18 10:21:30;;;;;;;13.52;8.55;;;;;;;0.76;86.16;98854.38;7394113;19;20042;-70
2023/01/18 10:24:26;;;;;;;28.02;14.32;;;;;;;0.82;85.87;98856.00;7394233;19;20026;-70
2023/01/18 10:27:11;;;;;;;18.58;10.18;;;;;;;0.84;85.54;98854.28;7395138;19;20011;-70
2023/01/18 10:29:54;;;;;;;15.48;7.97;;;;;;;0.89;85.85;98859.41;7392989;19;20366;-68
2023/01/18 10:32:27;;;;;;;12.60;8.02;;;;;;;0.93;85.75;98848.16;7392753;19;20549;-68
2023/01/18 10:34:56;;;;;;;13.63;7.95;;;;;;;0.98;85.54;98857.53;7393138;19;20023;-70
2023/01/18 10:37:36;;;;;;;14.65;8.10;;;;;;;1.04;85.31;98853.19;7394928;19;20018;-70
2023/01/18 10:40:11;;;;;;;13.13;7.43;;;;;;;1.06;85.12;98852.28;7393637;19;20356;-70
2023/01/18 10:42:46;;;;;;;13.93;6.95;;;;;;;1.09;85.19;98859.13;7392769;19;20011;-70
2023/01/18 10:45:19;;;;;;;9.60;6.90;;;;;;;1.08;84.79;98849.69;7393882;19;20030;-71
2023/01/18 10:47:47;;;;;;;13.43;7.43;;;;;;;1.13;84.68;98859.06;7395076;19;20022;-70
2023/01/18 10:50:21;;;;;;;10.90;7.53;;;;;;;1.14;84.63;98858.19;7395673;19;20022;-72
2023/01/18 10:52:50;;;;;;;14.27;9.30;;;;;;;1.13;84.56;98859.06;7394003;19;20094;-71
2023/01/18 10:55:21;;;;;;;11.27;7.90;;;;;;;1.17;84.73;98859.03;7395017;19;20018;-72
2023/01/18 10:57:53;;;;;;;10.23;7.40;;;;;;;1.18;84.28;98861.59;7393602;19;20023;-70
2023/01/18 11:00:25;;;;;;;12.02;7.43;;;;;;;1.18;83.90;98863.31;7393841;19;20086;-69
2023/01/18 11:02:56;;;;;;;12.43;8.50;;;;;;;1.12;83.42;98852.19;7394069;19;20038;-69
2023/01/18 11:05:31;;;;;;;14.38;7.85;;;;;;;1.16;84.06;98857.31;7393081;19;20019;-70
2023/01/18 11:08:22;;;;;;;13.95;7.85;;;;;;;1.16;83.96;98859.91;7392547;19;20011;-69
2023/01/18 11:11:02;;;;;;;12.65;7.82;;;;;;;1.18;83.80;98865.91;7393091;19;20026;-70
2023/01/18 11:13:35;;;;;;;10.90;7.38;;;;;;;1.19;83.94;98863.28;7394303;19;20014;-71
2023/01/18 11:16:12;;;;;;;19.23;8.68;;;;;;;1.21;83.63;98868.44;7394028;19;20482;-69
2023/01/18 11:18:56;;;;;;;16.35;10.15;;;;;;;1.23;84.06;98869.28;7392836;19;20022;-69
2023/01/18 11:21:30;;;;;;;12.95;8.80;;;;;;;1.26;83.95;98869.22;7393454;19;20014;-70
2023/01/18 11:23:59;;;;;;;14.50;9.25;;;;;;;1.30;83.62;98868.28;7392270;19;20019;-70
2023/01/18 11:26:30;;;;;;;14.20;8.55;;;;;;;1.31;83.61;98872.59;7393905;19;20023;-70
2023/01/18 11:29:01;;;;;;;16.88;8.60;;;;;;;1.34;83.75;98869.13;7393424;19;20084;-69
2023/01/18 11:31:33;;;;;;;22.17;11.98;;;;;;;1.37;83.53;98879.44;7393432;19;20031;-70
2023/01/18 11:34:06;;;;;;;16.70;9.38;;;;;;;1.37;83.46;98875.09;7392567;19;20046;-70
2023/01/18 11:36:37;;;;;;;20.42;11.80;;;;;;;1.40;83.39;98874.19;7394143;19;20018;-70
2023/01/18 11:39:26;;;;;;;23.98;11.38;;;;;;;1.41;83.20;98881.06;7394125;19;20014;-69
2023/01/18 11:42:17;;;;;;;12.80;8.63;;;;;;;1.43;83.26;98879.34;7398200;19;20082;-69
2023/01/18 11:44:51;;;;;;;22.23;11.40;;;;;;;1.44;83.16;98883.59;7398830;19;20055;-68
2023/01/18 11:47:35;;;;;;;13.35;8.90;;;;;;;1.45;83.42;98890.50;7399758;19;20010;-69
2023/01/18 11:50:09;;;;;;;20.27;10.30;;;;;;;1.47;83.20;98896.50;7398131;19;20517;-68
2023/01/18 11:52:45;;;;;;;15.67;10.07;;;;;;;1.48;83.25;98885.28;7397478;19;20014;-68
2023/01/18 11:55:25;;;;;;;20.92;10.80;;;;;;;1.49;83.56;98894.72;7401285;19;20040;-66
2023/01/18 11:57:56;;;;;;;18.92;10.35;;;;;;;1.51;83.23;98893.00;7398416;19;20027;-67
2023/01/18 12:00:27;;;;;;;12.48;8.63;;;;;;;1.52;83.52;98896.44;7400331;19;20018;-69
2023/01/18 12:03:24;;;;;;;13.48;8.00;;;;;;;1.56;83.54;98903.28;7397086;19;20038;-69
2023/01/18 12:05:57;;;;;;;15.85;9.15;;;;;;;1.56;83.55;98898.09;7400421;19;20044;-69
2023/01/18 12:08:50;;;;;;;12.77;8.45;;;;;;;1.57;83.31;98910.16;7401067;19;20031;-69
2023/01/18 12:11:36;;;;;;;11.52;7.32;;;;;;;1.55;83.40;98896.38;7397163;19;20015;-68
2023/01/18 12:14:16;;;;;;;13.52;7.22;;;;;;;1.55;83.28;98901.56;7397832;19;20482;-72
2023/01/18 12:16:56;;;;;;;12.55;8.07;;;;;;;1.56;83.31;98898.09;7397549;19;20105;-72
2023/01/18 12:19:43;;;;;;;11.40;7.55;;;;;;;1.54;83.36;98903.31;7400213;19;20022;-72
2023/01/18 12:22:47;;;;;;;62.75;32.00;;;;;;;1.56;83.28;98913.59;7396105;19;20493;-69
2023/01/18 12:25:28;;;;;;;14.93;8.57;;;;;;;1.56;83.71;98913.59;7395457;19;20022;-69